createdAt,value
2023-03-27T00:01:12.059Z,4.70
2023-03-27T00:03:40.125Z,4.70
2023-03-27T00:06:16.252Z,4.70
2023-03-27T00:08:48.914Z,4.60
2023-03-27T00:11:15.973Z,4.60
2023-03-27T00:13:50.277Z,4.60
2023-03-27T00:16:23.534Z,4.70
2023-03-27T00:18:50.470Z,4.60
2023-03-27T00:21:17.248Z,4.70
2023-03-27T00:23:44.230Z,4.70
2023-03-27T00:26:12.147Z,4.70
2023-03-27T00:28:38.954Z,4.70
2023-03-27T00:31:11.605Z,4.70
2023-03-27T00:33:38.516Z,4.70
2023-03-27T00:36:06.262Z,4.70
2023-03-27T00:38:34.097Z,4.70
2023-03-27T00:41:01.381Z,4.70
2023-03-27T00:43:34.138Z,4.70
2023-03-27T00:46:03.390Z,4.70
2023-03-27T00:48:35.563Z,4.70
2023-03-27T00:51:04.212Z,4.70
2023-03-27T00:53:31.385Z,4.80
2023-03-27T00:56:02.634Z,4.70
2023-03-27T00:58:33.893Z,4.70
2023-03-27T01:01:00.603Z,4.70
2023-03-27T01:03:31.552Z,4.60
2023-03-27T01:06:01.920Z,4.70
2023-03-27T01:08:31.972Z,4.70
2023-03-27T01:11:01.532Z,4.70
2023-03-27T01:13:31.176Z,4.70
2023-03-27T01:16:08.750Z,4.60
2023-03-27T01:19:10.831Z,4.60
2023-03-27T01:21:52.648Z,4.60
2023-03-27T01:24:57.606Z,4.60
2023-03-27T01:28:04.337Z,4.60
2023-03-27T01:30:50.424Z,4.50
2023-03-27T01:33:56.302Z,4.50
2023-03-27T01:36:32.032Z,4.50
2023-03-27T01:39:31.677Z,4.50
2023-03-27T01:42:12.638Z,4.50
2023-03-27T01:44:48.224Z,4.50
2023-03-27T01:47:46.392Z,4.50
2023-03-27T01:50:33.403Z,4.50
2023-03-27T01:53:04.746Z,4.50
2023-03-27T01:55:36.552Z,4.50
2023-03-27T01:58:18.153Z,4.50
2023-03-27T02:00:53.106Z,4.50
2023-03-27T02:03:27.080Z,4.50
2023-03-27T02:05:59.390Z,4.50
2023-03-27T02:08:45.719Z,4.50
2023-03-27T02:11:12.518Z,4.50
2023-03-27T02:13:46.882Z,4.50
2023-03-27T02:16:15.211Z,4.50
2023-03-27T02:18:47.761Z,4.50
2023-03-27T02:21:15.669Z,4.50
2023-03-27T02:23:43.638Z,4.50
2023-03-27T02:26:12.735Z,4.60
2023-03-27T02:29:02.491Z,4.60
2023-03-27T02:31:47.031Z,4.60
2023-03-27T02:34:36.075Z,4.60
2023-03-27T02:37:19.371Z,4.70
2023-03-27T02:40:10.195Z,4.60
2023-03-27T02:43:00.993Z,4.60
2023-03-27T02:45:46.094Z,4.60
2023-03-27T02:48:35.393Z,4.60
2023-03-27T02:51:08.378Z,4.60
2023-03-27T02:53:41.100Z,4.60
2023-03-27T02:56:10.634Z,4.60
2023-03-27T02:59:03.778Z,4.70
2023-03-27T03:01:32.559Z,4.70
2023-03-27T03:04:28.402Z,4.60
2023-03-27T03:06:56.194Z,4.60
2023-03-27T03:09:24.895Z,4.70
2023-03-27T03:11:53.624Z,4.70
2023-03-27T03:14:28.702Z,4.70
2023-03-27T03:16:55.558Z,4.70
2023-03-27T03:19:23.962Z,4.70
2023-03-27T03:21:50.921Z,4.70
2023-03-27T03:24:18.968Z,4.70
2023-03-27T03:26:49.948Z,4.70
2023-03-27T03:29:18.993Z,4.70
2023-03-27T03:31:48.620Z,4.70
2023-03-27T03:34:19.152Z,4.70
2023-03-27T03:36:49.988Z,4.70
2023-03-27T03:39:18.292Z,4.70
2023-03-27T03:41:45.292Z,4.70
2023-03-27T03:44:12.020Z,4.80
2023-03-27T03:46:39.067Z,4.80
2023-03-27T03:49:06.908Z,4.80
2023-03-27T03:51:35.373Z,4.80
2023-03-27T03:54:02.595Z,4.70
2023-03-27T03:56:30.869Z,4.60
2023-03-27T03:58:57.856Z,4.50
2023-03-27T04:01:26.133Z,4.50
2023-03-27T04:03:52.991Z,4.50
2023-03-27T04:06:25.531Z,4.40
2023-03-27T04:08:53.527Z,4.40
2023-03-27T04:11:20.652Z,4.40
2023-03-27T04:13:47.423Z,4.30
2023-03-27T04:16:14.450Z,4.30
2023-03-27T04:18:42.452Z,4.30
2023-03-27T04:21:14.565Z,4.40
2023-03-27T04:23:42.932Z,4.40
2023-03-27T04:26:12.304Z,4.40
2023-03-27T04:28:40.103Z,4.30
2023-03-27T04:31:08.628Z,4.30
2023-03-27T04:33:39.402Z,4.30
2023-03-27T04:36:08.128Z,4.40
2023-03-27T04:38:37.065Z,4.30
2023-03-27T04:41:04.663Z,4.30
2023-03-27T04:43:31.535Z,4.20
2023-03-27T04:45:58.249Z,4.10
2023-03-27T04:48:25.130Z,4.00
2023-03-27T04:50:51.906Z,4.00
2023-03-27T04:53:23.373Z,4.00
2023-03-27T04:55:53.040Z,3.90
2023-03-27T04:58:19.820Z,3.90
2023-03-27T05:00:50.427Z,3.90
2023-03-27T05:03:19.139Z,3.80
2023-03-27T05:05:50.043Z,3.70
2023-03-27T05:08:17.599Z,3.70
2023-03-27T05:10:45.400Z,3.70
2023-03-27T05:13:12.513Z,3.60
2023-03-27T05:15:39.407Z,3.70
2023-03-27T05:18:07.409Z,3.60
2023-03-27T05:20:34.906Z,3.70
2023-03-27T05:23:02.087Z,3.60
2023-03-27T05:25:29.588Z,3.60
2023-03-27T05:27:56.428Z,3.60
2023-03-27T05:30:25.025Z,3.60
2023-03-27T05:32:53.488Z,3.50
2023-03-27T05:35:23.500Z,3.50
2023-03-27T05:37:53.118Z,3.50
2023-03-27T05:40:22.512Z,3.60
2023-03-27T05:42:51.529Z,3.60
2023-03-27T05:45:18.762Z,3.50
2023-03-27T05:47:51.924Z,3.60
2023-03-27T05:50:20.805Z,3.50
2023-03-27T05:52:47.783Z,3.50
2023-03-27T05:55:15.194Z,3.50
2023-03-27T05:57:42.215Z,3.50
2023-03-27T06:00:13.664Z,3.50
2023-03-27T06:02:43.390Z,3.60
2023-03-27T06:05:13.430Z,3.70
2023-03-27T06:07:43.008Z,3.70
2023-03-27T06:10:14.096Z,3.60
2023-03-27T06:12:41.828Z,3.60
2023-03-27T06:15:10.581Z,3.60
2023-03-27T06:17:40.098Z,3.60
2023-03-27T06:20:12.591Z,3.60
2023-03-27T06:22:52.823Z,3.60
2023-03-27T06:25:20.480Z,3.50
2023-03-27T06:27:49.473Z,3.60
2023-03-27T06:30:19.435Z,3.60
2023-03-27T06:32:48.257Z,3.60
2023-03-27T06:35:15.495Z,3.60
2023-03-27T06:37:46.108Z,3.60
2023-03-27T06:40:23.891Z,3.50
2023-03-27T06:42:56.574Z,3.60
2023-03-27T06:45:25.977Z,3.60
2023-03-27T06:47:56.767Z,3.60
2023-03-27T06:50:43.366Z,3.60
2023-03-27T06:53:23.576Z,3.70
2023-03-27T06:55:54.139Z,3.70
2023-03-27T06:58:21.841Z,3.70
2023-03-27T07:00:50.093Z,3.70
2023-03-27T07:03:18.474Z,3.60
2023-03-27T07:05:45.756Z,3.70
2023-03-27T07:10:46.984Z,3.70
2023-03-27T07:13:17.968Z,3.80
2023-03-27T07:15:44.692Z,3.90
2023-03-27T07:18:11.626Z,4.10
2023-03-27T07:20:39.476Z,4.10
2023-03-27T07:23:06.443Z,4.20
2023-03-27T07:25:38.000Z,4.20
2023-03-27T07:28:08.291Z,4.10
2023-03-27T07:30:35.499Z,3.90
2023-03-27T07:33:02.911Z,3.90
2023-03-27T07:35:30.287Z,3.80
2023-03-27T07:37:58.375Z,3.70
2023-03-27T07:40:36.955Z,3.70
2023-03-27T07:43:07.229Z,3.70
2023-03-27T07:45:35.311Z,3.70
2023-03-27T07:48:14.269Z,3.70
2023-03-27T07:50:41.012Z,3.70
2023-03-27T07:53:07.740Z,3.70
2023-03-27T07:55:37.854Z,3.70
2023-03-27T07:58:07.020Z,3.80
2023-03-27T08:00:38.874Z,3.80
2023-03-27T08:03:10.654Z,3.80
2023-03-27T08:05:38.495Z,3.90
2023-03-27T08:08:05.419Z,3.90
2023-03-27T08:10:32.320Z,3.80
2023-03-27T08:12:59.074Z,3.70
2023-03-27T08:15:25.859Z,3.70
2023-03-27T08:17:55.156Z,3.70
2023-03-27T08:20:23.989Z,3.70
2023-03-27T08:22:55.504Z,3.70
2023-03-27T08:25:24.881Z,3.70
2023-03-27T08:27:52.145Z,3.70
2023-03-27T08:30:21.541Z,3.60
2023-03-27T08:32:48.522Z,3.60
2023-03-27T08:35:15.498Z,3.60
2023-03-27T08:37:42.219Z,3.70
2023-03-27T08:40:19.915Z,3.80
2023-03-27T08:42:50.560Z,4.00
2023-03-27T08:45:28.086Z,4.10
2023-03-27T08:48:17.937Z,4.10
2023-03-27T08:50:56.824Z,4.10
2023-03-27T08:53:34.374Z,4.20
2023-03-27T08:56:03.206Z,4.30
2023-03-27T08:58:32.647Z,4.30
2023-03-27T09:01:31.155Z,4.40
2023-03-27T09:04:31.676Z,4.40
2023-03-27T09:07:25.424Z,4.40
2023-03-27T09:10:54.765Z,4.30
2023-03-27T09:13:29.178Z,4.20
2023-03-27T09:16:04.781Z,4.00
2023-03-27T09:18:54.720Z,3.90
2023-03-27T09:21:36.529Z,3.90
2023-03-27T09:24:11.574Z,4.10
2023-03-27T09:26:38.378Z,4.10
2023-03-27T09:29:19.998Z,4.10
2023-03-27T09:31:50.072Z,4.10
2023-03-27T09:34:24.937Z,4.20
2023-03-27T09:36:51.797Z,4.30
2023-03-27T09:39:32.735Z,4.30
2023-03-27T09:42:21.591Z,4.30
2023-03-27T09:44:54.661Z,4.40
2023-03-27T09:47:31.872Z,4.40
2023-03-27T09:50:18.606Z,4.50
2023-03-27T09:52:45.313Z,4.60
2023-03-27T09:55:31.140Z,4.50
2023-03-27T09:58:15.519Z,4.60
2023-03-27T10:00:42.364Z,4.70
2023-03-27T10:03:18.371Z,4.70
2023-03-27T10:05:46.966Z,4.90
2023-03-27T10:08:37.695Z,5.00
2023-03-27T10:11:08.098Z,5.10
2023-03-27T10:13:35.398Z,5.10
2023-03-27T10:16:06.006Z,5.00
2023-03-27T10:18:41.780Z,5.00
2023-03-27T10:21:11.893Z,5.00
2023-03-27T10:23:49.835Z,5.20
2023-03-27T10:26:25.511Z,5.20
2023-03-27T10:28:53.421Z,5.20
2023-03-27T10:31:38.024Z,5.20
2023-03-27T10:34:06.760Z,5.30
2023-03-27T10:36:36.619Z,5.50
2023-03-27T10:39:11.745Z,5.60
2023-03-27T10:41:38.877Z,5.80
2023-03-27T10:44:14.900Z,5.90
2023-03-27T10:46:43.162Z,6.00
2023-03-27T10:49:28.822Z,5.80
2023-03-27T10:52:15.149Z,5.70
2023-03-27T10:55:00.774Z,5.60
2023-03-27T10:57:34.317Z,5.60
2023-03-27T11:00:27.649Z,5.60
2023-03-27T11:03:18.849Z,5.80
2023-03-27T11:05:48.504Z,6.00
2023-03-27T11:08:41.627Z,6.20
2023-03-27T11:11:32.638Z,6.70
2023-03-27T11:14:04.525Z,6.90
2023-03-27T11:16:49.763Z,6.90
2023-03-27T11:19:28.388Z,7.10
2023-03-27T11:22:01.216Z,6.90
2023-03-27T11:24:41.980Z,7.20
2023-03-27T11:27:16.322Z,7.60
2023-03-27T11:29:47.393Z,7.80
2023-03-27T11:32:34.996Z,7.60
2023-03-27T11:35:16.541Z,7.80
2023-03-27T11:37:48.022Z,7.60
2023-03-27T11:40:30.050Z,6.90
2023-03-27T11:42:57.273Z,6.40
2023-03-27T11:45:27.188Z,6.60
2023-03-27T11:48:10.896Z,7.10
2023-03-27T11:50:48.447Z,7.40
2023-03-27T11:53:24.117Z,7.00
2023-03-27T11:56:11.992Z,6.60
2023-03-27T11:59:16.693Z,6.70
2023-03-27T12:01:49.423Z,6.70
2023-03-27T12:04:45.559Z,6.60
2023-03-27T12:07:36.168Z,6.50
2023-03-27T12:10:31.872Z,6.50
2023-03-27T12:13:38.517Z,6.50
2023-03-27T12:16:34.213Z,6.40
2023-03-27T12:19:26.959Z,7.30
2023-03-27T12:22:38.823Z,7.40
2023-03-27T12:25:21.185Z,7.40
2023-03-27T12:27:50.806Z,8.20
2023-03-27T12:30:26.580Z,8.90
2023-03-27T12:33:11.836Z,9.00
2023-03-27T12:35:43.459Z,9.40
2023-03-27T12:38:27.746Z,9.50
2023-03-27T12:41:12.964Z,9.10
2023-03-27T12:43:45.373Z,8.60
2023-03-27T12:46:24.240Z,8.40
2023-03-27T12:49:01.714Z,8.00
2023-03-27T12:52:04.346Z,8.00
2023-03-27T12:54:33.673Z,8.40
2023-03-27T12:57:19.122Z,8.90
2023-03-27T12:59:49.203Z,9.00
2023-03-27T13:02:28.100Z,8.80
2023-03-27T13:05:27.462Z,8.40
2023-03-27T13:08:24.468Z,8.20
2023-03-27T13:11:31.849Z,8.30
2023-03-27T13:13:58.768Z,8.80
2023-03-27T13:16:47.326Z,9.10
2023-03-27T13:19:44.318Z,9.20
2023-03-27T13:22:26.235Z,8.90
2023-03-27T13:25:05.011Z,8.60
2023-03-27T13:27:47.245Z,8.20
2023-03-27T13:30:43.765Z,7.90
2023-03-27T13:33:37.835Z,8.20
2023-03-27T13:36:19.793Z,8.20
2023-03-27T13:38:52.852Z,8.10
2023-03-27T13:41:44.692Z,7.70
2023-03-27T13:44:20.128Z,7.50
2023-03-27T13:47:09.259Z,7.60
2023-03-27T13:50:05.101Z,8.50
2023-03-27T13:53:23.914Z,8.80
2023-03-27T13:56:09.582Z,8.20
2023-03-27T13:59:02.994Z,7.80
2023-03-27T14:02:03.660Z,8.10
2023-03-27T14:04:50.250Z,8.20
2023-03-27T14:07:56.229Z,8.30
2023-03-27T14:11:15.585Z,8.70
2023-03-27T14:14:00.353Z,9.30
2023-03-27T14:16:29.991Z,9.90
2023-03-27T14:19:16.014Z,10.20
2023-03-27T14:22:07.504Z,11.70
2023-03-27T14:24:43.551Z,13.60
2023-03-27T14:27:18.723Z,16.20
2023-03-27T14:29:46.248Z,18.50
2023-03-27T14:32:15.816Z,18.90
2023-03-27T14:34:54.543Z,18.20
2023-03-27T14:37:36.053Z,16.60
2023-03-27T14:40:19.009Z,14.10
2023-03-27T14:42:51.187Z,12.00
2023-03-27T14:45:27.325Z,10.60
2023-03-27T14:48:01.386Z,10.00
2023-03-27T14:50:29.802Z,9.20
2023-03-27T14:52:58.692Z,8.60
2023-03-27T14:55:30.258Z,8.30
2023-03-27T14:58:10.464Z,8.20
2023-03-27T15:00:40.535Z,8.30
2023-03-27T15:03:16.647Z,8.50
2023-03-27T15:06:05.774Z,8.40
2023-03-27T15:08:37.209Z,8.50
2023-03-27T15:11:11.088Z,9.30
2023-03-27T15:13:38.148Z,8.30
2023-03-27T15:16:07.121Z,8.30
2023-03-27T15:18:38.889Z,8.30
2023-03-27T15:21:14.288Z,8.00
2023-03-27T15:24:06.665Z,7.90
2023-03-27T15:26:35.495Z,7.70
2023-03-27T15:29:08.112Z,7.50
2023-03-27T15:31:36.400Z,7.40
2023-03-27T15:34:24.512Z,7.30
2023-03-27T15:36:58.118Z,7.20
2023-03-27T15:39:26.519Z,7.00
2023-03-27T15:41:56.396Z,6.90
2023-03-27T15:44:26.286Z,7.00
2023-03-27T15:46:58.767Z,7.00
2023-03-27T15:49:32.122Z,7.00
2023-03-27T15:52:01.417Z,7.00
2023-03-27T15:54:29.350Z,7.00
2023-03-27T15:57:10.385Z,7.00
2023-03-27T15:59:52.173Z,7.00
2023-03-27T16:02:21.482Z,7.00
2023-03-27T16:04:57.131Z,6.90
2023-03-27T16:07:42.553Z,6.80
2023-03-27T16:10:12.256Z,6.70
2023-03-27T16:13:02.424Z,6.70
2023-03-27T16:15:33.852Z,6.60
2023-03-27T16:18:24.116Z,6.60
2023-03-27T16:20:51.039Z,6.60
2023-03-27T16:23:17.756Z,6.50
2023-03-27T16:25:44.471Z,6.50
2023-03-27T16:28:12.356Z,6.50
2023-03-27T16:30:41.456Z,6.50
2023-03-27T16:33:16.767Z,6.40
2023-03-27T16:35:44.145Z,6.30
2023-03-27T16:38:11.271Z,6.20
2023-03-27T16:40:37.947Z,6.10
2023-03-27T16:43:04.636Z,6.00
2023-03-27T16:45:32.555Z,5.80
2023-03-27T16:47:59.355Z,5.70
2023-03-27T16:50:29.169Z,5.70
2023-03-27T16:52:56.170Z,5.70
2023-03-27T16:55:24.127Z,5.50
2023-03-27T16:57:52.448Z,5.30
2023-03-27T17:00:20.097Z,5.40
2023-03-27T17:02:47.544Z,5.40
2023-03-27T17:05:14.882Z,5.60
2023-03-27T17:07:42.008Z,5.60
2023-03-27T17:10:10.371Z,5.50
2023-03-27T17:12:37.220Z,5.50
2023-03-27T17:15:04.579Z,5.50
2023-03-27T17:17:31.922Z,5.50
2023-03-27T17:19:58.985Z,5.60
2023-03-27T17:22:26.498Z,5.70
2023-03-27T17:24:56.613Z,5.60
2023-03-27T17:27:25.792Z,5.70
2023-03-27T17:29:52.543Z,5.60
2023-03-27T17:32:19.254Z,5.50
2023-03-27T17:34:45.958Z,5.50
2023-03-27T17:37:12.712Z,5.50
2023-03-27T17:39:39.793Z,5.50
2023-03-27T17:42:07.593Z,5.50
2023-03-27T17:44:34.338Z,5.50
2023-03-27T17:47:01.087Z,5.50
2023-03-27T17:49:29.818Z,5.50
2023-03-27T17:51:56.798Z,5.40
2023-03-27T17:54:23.809Z,5.40
2023-03-27T17:56:50.603Z,5.30
2023-03-27T17:59:17.531Z,5.20
2023-03-27T18:01:47.397Z,5.20
2023-03-27T18:04:14.227Z,5.20
2023-03-27T18:06:41.023Z,5.10
2023-03-27T18:09:09.688Z,5.00
2023-03-27T18:11:36.665Z,5.00
2023-03-27T18:17:51.007Z,4.90
2023-03-27T18:20:17.776Z,4.90
2023-03-27T18:22:44.421Z,4.80
2023-03-27T18:25:11.637Z,4.80
2023-03-27T18:27:40.258Z,4.80
2023-03-27T18:30:11.646Z,4.70
2023-03-27T18:32:39.660Z,4.70
2023-03-27T18:35:07.972Z,4.70
2023-03-27T18:37:34.968Z,4.60
2023-03-27T18:40:01.828Z,4.50
2023-03-27T18:42:28.826Z,4.50
2023-03-27T18:44:55.611Z,4.50
2023-03-27T18:47:22.360Z,4.40
2023-03-27T18:49:49.144Z,4.40
2023-03-27T18:52:16.292Z,4.50
2023-03-27T18:54:43.441Z,4.30
2023-03-27T18:57:11.784Z,4.30
2023-03-27T18:59:38.556Z,4.30
2023-03-27T19:02:05.546Z,4.20
2023-03-27T19:04:32.353Z,4.10
2023-03-27T19:06:59.075Z,4.10
2023-03-27T19:09:34.491Z,3.90
2023-03-27T19:12:08.481Z,3.90
2023-03-27T19:14:35.331Z,4.00
2023-03-27T19:17:02.063Z,3.90
2023-03-27T19:19:30.776Z,3.90
2023-03-27T19:21:58.111Z,3.90
2023-03-27T19:24:25.021Z,3.80
2023-03-27T19:26:52.681Z,3.70
2023-03-27T19:29:19.705Z,3.60
2023-03-27T19:31:46.439Z,3.60
2023-03-27T19:34:13.429Z,3.50
2023-03-27T19:36:40.388Z,3.40
2023-03-27T19:39:07.192Z,3.40
2023-03-27T19:41:33.956Z,3.40
2023-03-27T19:44:00.792Z,3.40
2023-03-27T19:46:29.291Z,3.30
2023-03-27T19:48:56.651Z,3.30
2023-03-27T19:51:23.425Z,3.20
2023-03-27T19:53:50.259Z,3.20
2023-03-27T19:56:17.469Z,3.20
2023-03-27T19:58:44.377Z,3.30
2023-03-27T20:01:11.592Z,3.20
2023-03-27T20:03:39.934Z,3.20
2023-03-27T20:06:13.258Z,3.10
2023-03-27T20:08:41.218Z,3.10
2023-03-27T20:11:08.142Z,3.00
2023-03-27T20:13:42.563Z,3.00
2023-03-27T20:16:14.960Z,3.00
2023-03-27T20:18:42.752Z,3.00
2023-03-27T20:21:13.449Z,2.90
2023-03-27T20:23:42.074Z,2.80
2023-03-27T20:26:09.484Z,2.80
2023-03-27T20:28:36.378Z,2.80
2023-03-27T20:31:05.084Z,2.80
2023-03-27T20:33:32.177Z,2.80
2023-03-27T20:35:59.142Z,2.70
2023-03-27T20:38:29.607Z,2.70
2023-03-27T20:40:56.443Z,2.60
2023-03-27T20:43:23.389Z,2.70
2023-03-27T20:45:52.843Z,2.60
2023-03-27T20:48:21.859Z,2.60
2023-03-27T20:50:51.425Z,2.60
2023-03-27T20:53:18.777Z,2.50
2023-03-27T20:55:59.395Z,2.60
2023-03-27T20:58:27.411Z,2.50
2023-03-27T21:00:56.025Z,2.60
2023-03-27T21:03:23.310Z,2.60
2023-03-27T21:05:50.025Z,2.70
2023-03-27T21:08:16.897Z,2.70
2023-03-27T21:10:53.024Z,2.70
2023-03-27T21:13:19.903Z,2.70
2023-03-27T21:15:46.746Z,2.60
2023-03-27T21:18:13.470Z,2.70
2023-03-27T21:20:40.254Z,2.70
2023-03-27T21:23:06.992Z,2.60
2023-03-27T21:25:34.985Z,2.60
2023-03-27T21:28:01.722Z,2.50
2023-03-27T21:30:47.310Z,2.30
2023-03-27T21:33:16.199Z,2.30
2023-03-27T21:35:45.718Z,2.30
2023-03-27T21:38:13.815Z,2.40
2023-03-27T21:40:41.233Z,2.40
2023-03-27T21:43:08.855Z,2.30
2023-03-27T21:45:36.795Z,2.40
2023-03-27T21:48:04.283Z,2.40
2023-03-27T21:50:31.347Z,2.40
2023-03-27T21:52:58.220Z,2.40
2023-03-27T21:55:25.001Z,2.40
2023-03-27T21:57:52.365Z,2.40
2023-03-27T22:00:19.654Z,2.30
2023-03-27T22:02:46.528Z,2.40
2023-03-27T22:05:13.287Z,2.30
2023-03-27T22:07:40.097Z,2.30
2023-03-27T22:10:07.309Z,2.30
2023-03-27T22:12:37.819Z,2.30
2023-03-27T22:15:07.006Z,2.40
2023-03-27T22:17:36.333Z,2.30
2023-03-27T22:20:04.743Z,2.30
2023-03-27T22:22:34.615Z,2.20
2023-03-27T22:25:01.692Z,2.20
2023-03-27T22:27:28.600Z,2.30
2023-03-27T22:29:56.005Z,2.30
2023-03-27T22:32:22.712Z,2.40
2023-03-27T22:34:49.893Z,2.40
2023-03-27T22:37:17.372Z,2.40
2023-03-27T22:39:44.163Z,2.40
2023-03-27T22:42:10.886Z,2.50
2023-03-27T22:44:37.694Z,2.50
2023-03-27T22:47:04.489Z,2.50
2023-03-27T22:49:31.364Z,2.70
2023-03-27T22:51:58.129Z,2.70
2023-03-27T22:54:24.897Z,2.80
2023-03-27T22:56:52.062Z,2.80
2023-03-27T22:59:19.132Z,2.70
2023-03-27T23:01:46.084Z,2.70
2023-03-27T23:04:12.968Z,2.60
2023-03-27T23:06:39.697Z,2.60
2023-03-27T23:09:07.478Z,2.50
2023-03-27T23:11:34.211Z,2.50
2023-03-27T23:14:01.211Z,2.50
2023-03-27T23:16:28.117Z,2.40
2023-03-27T23:18:54.857Z,2.40
2023-03-27T23:21:21.583Z,2.40
2023-03-27T23:23:48.458Z,2.40
2023-03-27T23:26:15.681Z,2.50
2023-03-27T23:28:43.049Z,2.50
2023-03-27T23:31:18.067Z,2.50
2023-03-27T23:33:47.839Z,2.60
2023-03-27T23:36:23.312Z,2.50
2023-03-27T23:38:51.533Z,2.40
2023-03-27T23:41:18.927Z,2.30
2023-03-27T23:43:46.115Z,2.30
2023-03-27T23:46:13.107Z,2.30
2023-03-27T23:48:42.100Z,2.30
2023-03-27T23:51:10.260Z,2.20
2023-03-27T23:53:37.162Z,2.20
2023-03-27T23:56:04.243Z,2.20
2023-03-27T23:58:32.857Z,2.10
